ITY290 ELLX-LIML
Flight info
| Callsign | ITY290 |
|---|---|
| Flight time | 1h 2m |
| Altitude | 37000 |
| Route | GTQ DCT DEVDI DCT RIPUS DCT GERSA DCT SOSON DCT ODINA |
| Aircraft | A320/M-SDE3FGHIRWY/LB1 |
Departure
| Time | 2026-05-05 20:01 |
|---|---|
| Airport | Luxembourg-Findel International Airport (ELLX) |
Arrival
| Time | 2026-05-05 21:03 |
|---|---|
| Airport | Milano Linate Airport (LIML) |
| Time | Latitude | Longitude | Altitude | Speed | Heading |
|---|---|---|---|---|---|
| 2026-05-05 19:54 | 49.63119 | 6.21331 | 1231 ft | 3 kts | 152° |
| 2026-05-05 19:55 | 49.63107 | 6.21341 | 1231 ft | 0 kts | 151° |
| 2026-05-05 19:55 | 49.63073 | 6.21371 | 1231 ft | 9 kts | 150° |
| 2026-05-05 19:55 | 49.63008 | 6.21393 | 1229 ft | 13 kts | 199° |
| 2026-05-05 19:55 | 49.62971 | 6.21303 | 1231 ft | 8 kts | 246° |
| 2026-05-05 19:56 | 49.62923 | 6.21153 | 1233 ft | 29 kts | 248° |
| 2026-05-05 19:56 | 49.62838 | 6.20872 | 1241 ft | 25 kts | 244° |
| 2026-05-05 19:56 | 49.62763 | 6.20703 | 1246 ft | 18 kts | 221° |
| 2026-05-05 19:56 | 49.62669 | 6.20585 | 1248 ft | 16 kts | 224° |
| 2026-05-05 19:57 | 49.62596 | 6.20460 | 1235 ft | 16 kts | 229° |
| 2026-05-05 19:57 | 49.62525 | 6.20335 | 1230 ft | 16 kts | 231° |
| 2026-05-05 19:57 | 49.62443 | 6.20136 | 1219 ft | 26 kts | 240° |
| 2026-05-05 19:57 | 49.62345 | 6.19872 | 1203 ft | 31 kts | 240° |
| 2026-05-05 19:58 | 49.62242 | 6.19597 | 1187 ft | 28 kts | 241° |
| 2026-05-05 19:58 | 49.62140 | 6.19322 | 1173 ft | 31 kts | 240° |
| 2026-05-05 19:58 | 49.62029 | 6.19023 | 1163 ft | 33 kts | 240° |
| 2026-05-05 19:58 | 49.61898 | 6.18752 | 1157 ft | 22 kts | 213° |
| 2026-05-05 19:59 | 49.61848 | 6.18719 | 1156 ft | 0 kts | 204° |
| 2026-05-05 19:59 | 49.61831 | 6.18715 | 1157 ft | 11 kts | 182° |
| 2026-05-05 20:00 | 49.61768 | 6.18779 | 1160 ft | 2 kts | 100° |
| 2026-05-05 20:00 | 49.61790 | 6.18851 | 1161 ft | 18 kts | 60° |
| 2026-05-05 20:00 | 49.61975 | 6.19353 | 1175 ft | 98 kts | 60° |
| 2026-05-05 20:00 | 49.62431 | 6.20585 | 1248 ft | 166 kts | 60° |
| 2026-05-05 20:01 | 49.63017 | 6.22147 | 2103 ft | 171 kts | 60° |
| 2026-05-05 20:01 | 49.63643 | 6.23820 | 3045 ft | 190 kts | 61° |
| 2026-05-05 20:01 | 49.64039 | 6.25825 | 3607 ft | 209 kts | 97° |
| 2026-05-05 20:01 | 49.63444 | 6.27940 | 3961 ft | 233 kts | 134° |
| 2026-05-05 20:02 | 49.62219 | 6.29837 | 4003 ft | 259 kts | 138° |
| 2026-05-05 20:02 | 49.60915 | 6.31801 | 4005 ft | 265 kts | 137° |
| 2026-05-05 20:02 | 49.59573 | 6.33846 | 4646 ft | 273 kts | 137° |
| 2026-05-05 20:02 | 49.58237 | 6.35912 | 5753 ft | 272 kts | 137° |
| 2026-05-05 20:03 | 49.56898 | 6.38004 | 6715 ft | 275 kts | 138° |
| 2026-05-05 20:03 | 49.55437 | 6.39927 | 7593 ft | 277 kts | 151° |
| 2026-05-05 20:03 | 49.53708 | 6.41245 | 8512 ft | 278 kts | 159° |
| 2026-05-05 20:03 | 49.51945 | 6.42436 | 9440 ft | 282 kts | 159° |
| 2026-05-05 20:04 | 49.50125 | 6.43679 | 10173 ft | 293 kts | 159° |
| 2026-05-05 20:04 | 49.48187 | 6.45004 | 10495 ft | 316 kts | 159° |
| 2026-05-05 20:04 | 49.46139 | 6.46410 | 11019 ft | 327 kts | 158° |
| 2026-05-05 20:04 | 49.44046 | 6.47860 | 11817 ft | 332 kts | 158° |
| 2026-05-05 20:05 | 49.41920 | 6.49298 | 12631 ft | 336 kts | 159° |
| 2026-05-05 20:05 | 49.39747 | 6.50723 | 13435 ft | 341 kts | 160° |
| 2026-05-05 20:05 | 49.37550 | 6.52139 | 14167 ft | 345 kts | 160° |
| 2026-05-05 20:05 | 49.35325 | 6.53563 | 14888 ft | 348 kts | 160° |
| 2026-05-05 20:06 | 49.33083 | 6.55001 | 15613 ft | 351 kts | 159° |
| 2026-05-05 20:06 | 49.30818 | 6.56460 | 16324 ft | 354 kts | 159° |
| 2026-05-05 20:06 | 49.28537 | 6.57930 | 17065 ft | 357 kts | 159° |
| 2026-05-05 20:06 | 49.26240 | 6.59412 | 17776 ft | 360 kts | 159° |
| 2026-05-05 20:07 | 49.23921 | 6.60910 | 18447 ft | 363 kts | 159° |
| 2026-05-05 20:07 | 49.21616 | 6.62402 | 19062 ft | 366 kts | 158° |
| 2026-05-05 20:07 | 49.19265 | 6.63925 | 19687 ft | 368 kts | 158° |
| 2026-05-05 20:07 | 49.16898 | 6.65454 | 20303 ft | 371 kts | 158° |
| 2026-05-05 20:08 | 49.14517 | 6.66987 | 20952 ft | 373 kts | 158° |
| 2026-05-05 20:08 | 49.12115 | 6.68532 | 21596 ft | 375 kts | 158° |
| 2026-05-05 20:08 | 49.09704 | 6.70074 | 22270 ft | 376 kts | 158° |
| 2026-05-05 20:08 | 49.07281 | 6.71623 | 22962 ft | 377 kts | 158° |
| 2026-05-05 20:09 | 49.04858 | 6.73180 | 23566 ft | 379 kts | 158° |
| 2026-05-05 20:09 | 49.02421 | 6.74749 | 24069 ft | 382 kts | 158° |
| 2026-05-05 20:09 | 48.99962 | 6.76328 | 24547 ft | 384 kts | 158° |
| 2026-05-05 20:09 | 48.97486 | 6.77908 | 25014 ft | 387 kts | 158° |
| 2026-05-05 20:10 | 48.95026 | 6.79474 | 25464 ft | 389 kts | 158° |
| 2026-05-05 20:10 | 48.92513 | 6.81074 | 25907 ft | 392 kts | 158° |
| 2026-05-05 20:10 | 48.89981 | 6.82683 | 26354 ft | 395 kts | 158° |
| 2026-05-05 20:10 | 48.87442 | 6.84297 | 26782 ft | 397 kts | 158° |
| 2026-05-05 20:11 | 48.84878 | 6.85924 | 27141 ft | 401 kts | 158° |
| 2026-05-05 20:11 | 48.82289 | 6.87567 | 27538 ft | 404 kts | 158° |
| 2026-05-05 20:11 | 48.79688 | 6.89221 | 27946 ft | 407 kts | 158° |
| 2026-05-05 20:11 | 48.77067 | 6.90886 | 28352 ft | 409 kts | 158° |
| 2026-05-05 20:12 | 48.74431 | 6.92556 | 28745 ft | 412 kts | 158° |
| 2026-05-05 20:12 | 48.71781 | 6.94228 | 29128 ft | 414 kts | 158° |
| 2026-05-05 20:12 | 48.69146 | 6.95890 | 29501 ft | 416 kts | 158° |
| 2026-05-05 20:12 | 48.66458 | 6.97586 | 29868 ft | 418 kts | 158° |
| 2026-05-05 20:13 | 48.63761 | 6.99288 | 30199 ft | 420 kts | 158° |
| 2026-05-05 20:13 | 48.61059 | 7.00991 | 30491 ft | 422 kts | 158° |
| 2026-05-05 20:13 | 48.58331 | 7.02706 | 30775 ft | 425 kts | 158° |
| 2026-05-05 20:13 | 48.55597 | 7.04417 | 31050 ft | 427 kts | 158° |
| 2026-05-05 20:14 | 48.52878 | 7.06114 | 31315 ft | 429 kts | 158° |
| 2026-05-05 20:14 | 48.50117 | 7.07840 | 31575 ft | 431 kts | 158° |
| 2026-05-05 20:14 | 48.47349 | 7.09571 | 31923 ft | 430 kts | 158° |
| 2026-05-05 20:14 | 48.44587 | 7.11298 | 32290 ft | 430 kts | 159° |
| 2026-05-05 20:15 | 48.41827 | 7.13022 | 32654 ft | 430 kts | 159° |
| 2026-05-05 20:15 | 48.39065 | 7.14746 | 32979 ft | 430 kts | 159° |
| 2026-05-05 20:15 | 48.36297 | 7.16472 | 33324 ft | 430 kts | 159° |
| 2026-05-05 20:15 | 48.33534 | 7.18196 | 33683 ft | 430 kts | 159° |
| 2026-05-05 20:16 | 48.30769 | 7.19916 | 34013 ft | 430 kts | 159° |
| 2026-05-05 20:16 | 48.27998 | 7.21637 | 34307 ft | 430 kts | 159° |
| 2026-05-05 20:16 | 48.25232 | 7.23351 | 34598 ft | 430 kts | 159° |
| 2026-05-05 20:16 | 48.22461 | 7.25063 | 34861 ft | 430 kts | 159° |
| 2026-05-05 20:17 | 48.19695 | 7.26767 | 35116 ft | 431 kts | 160° |
| 2026-05-05 20:17 | 48.16919 | 7.28474 | 35347 ft | 431 kts | 160° |
| 2026-05-05 20:17 | 48.14140 | 7.30182 | 35620 ft | 431 kts | 160° |
| 2026-05-05 20:17 | 48.11364 | 7.31885 | 35887 ft | 431 kts | 160° |
| 2026-05-05 20:18 | 48.08596 | 7.33584 | 36135 ft | 431 kts | 160° |
| 2026-05-05 20:18 | 48.05821 | 7.35290 | 36380 ft | 430 kts | 160° |
| 2026-05-05 20:18 | 48.03057 | 7.36991 | 36620 ft | 430 kts | 160° |
| 2026-05-05 20:18 | 48.00283 | 7.38698 | 36817 ft | 431 kts | 160° |
| 2026-05-05 20:19 | 47.97517 | 7.40397 | 36866 ft | 429 kts | 160° |
| 2026-05-05 20:19 | 47.92019 | 7.43757 | 36868 ft | 426 kts | 161° |
| 2026-05-05 20:20 | 47.86565 | 7.47081 | 36874 ft | 426 kts | 161° |
| 2026-05-05 20:20 | 47.81084 | 7.50415 | 36888 ft | 425 kts | 161° |
| 2026-05-05 20:21 | 47.75725 | 7.54025 | 36521 ft | 423 kts | 151° |
| 2026-05-05 20:21 | 47.73367 | 7.56656 | 36142 ft | 426 kts | 141° |
| 2026-05-05 20:21 | 47.71353 | 7.59906 | 35746 ft | 431 kts | 131° |
| 2026-05-05 20:21 | 47.69653 | 7.63366 | 35394 ft | 432 kts | 130° |
| 2026-05-05 20:22 | 47.67812 | 7.67106 | 35023 ft | 433 kts | 130° |
| 2026-05-05 20:22 | 47.66028 | 7.70700 | 34855 ft | 432 kts | 131° |
| 2026-05-05 20:22 | 47.64262 | 7.74235 | 34897 ft | 433 kts | 131° |
| 2026-05-05 20:23 | 47.60661 | 7.81423 | 34895 ft | 434 kts | 131° |
| 2026-05-05 20:23 | 47.57069 | 7.88620 | 34899 ft | 434 kts | 131° |
| 2026-05-05 20:24 | 47.53479 | 7.95805 | 34903 ft | 434 kts | 131° |
| 2026-05-05 20:24 | 47.49879 | 8.02972 | 34900 ft | 434 kts | 131° |
| 2026-05-05 20:25 | 47.46270 | 8.10118 | 34903 ft | 434 kts | 131° |
| 2026-05-05 20:25 | 47.42686 | 8.17223 | 34910 ft | 434 kts | 131° |
| 2026-05-05 20:26 | 47.39078 | 8.24365 | 34914 ft | 434 kts | 131° |
| 2026-05-05 20:26 | 47.35460 | 8.31482 | 34904 ft | 433 kts | 132° |
| 2026-05-05 20:27 | 47.31772 | 8.38491 | 34889 ft | 428 kts | 140° |
| 2026-05-05 20:27 | 47.29474 | 8.41169 | 34894 ft | 417 kts | 155° |
| 2026-05-05 20:27 | 47.26842 | 8.42818 | 34888 ft | 407 kts | 170° |
| 2026-05-05 20:28 | 47.21298 | 8.44109 | 34896 ft | 403 kts | 176° |
| 2026-05-05 20:28 | 47.15777 | 8.45234 | 34895 ft | 404 kts | 176° |
| 2026-05-05 20:29 | 47.10207 | 8.46376 | 34899 ft | 404 kts | 176° |
| 2026-05-05 20:29 | 47.04624 | 8.47522 | 34896 ft | 405 kts | 177° |
| 2026-05-05 20:30 | 46.99037 | 8.48661 | 34909 ft | 405 kts | 177° |
| 2026-05-05 20:30 | 46.93462 | 8.49802 | 34915 ft | 403 kts | 177° |
| 2026-05-05 20:31 | 46.87907 | 8.50940 | 34920 ft | 403 kts | 177° |
| 2026-05-05 20:31 | 46.82336 | 8.52073 | 34929 ft | 404 kts | 177° |
| 2026-05-05 20:32 | 46.76799 | 8.53198 | 34948 ft | 403 kts | 177° |
| 2026-05-05 20:32 | 46.71241 | 8.54327 | 34934 ft | 403 kts | 178° |
| 2026-05-05 20:32 | 46.68460 | 8.54888 | 34660 ft | 402 kts | 178° |
| 2026-05-05 20:33 | 46.65695 | 8.55448 | 34403 ft | 399 kts | 179° |
| 2026-05-05 20:33 | 46.62964 | 8.56006 | 33932 ft | 394 kts | 179° |
| 2026-05-05 20:33 | 46.60299 | 8.56549 | 33400 ft | 389 kts | 179° |
| 2026-05-05 20:33 | 46.57603 | 8.57092 | 32908 ft | 384 kts | 179° |
| 2026-05-05 20:34 | 46.55002 | 8.57613 | 32425 ft | 380 kts | 179° |
| 2026-05-05 20:34 | 46.52395 | 8.58135 | 31958 ft | 376 kts | 179° |
| 2026-05-05 20:34 | 46.49814 | 8.58653 | 31481 ft | 373 kts | 179° |
| 2026-05-05 20:34 | 46.47197 | 8.59170 | 31014 ft | 385 kts | 179° |
| 2026-05-05 20:35 | 46.44537 | 8.59695 | 30528 ft | 386 kts | 178° |
| 2026-05-05 20:35 | 46.41880 | 8.60224 | 30039 ft | 384 kts | 178° |
| 2026-05-05 20:35 | 46.39236 | 8.60752 | 29413 ft | 383 kts | 178° |
| 2026-05-05 20:35 | 46.36601 | 8.61282 | 28734 ft | 382 kts | 178° |
| 2026-05-05 20:36 | 46.33974 | 8.61813 | 28082 ft | 380 kts | 177° |
| 2026-05-05 20:36 | 46.31362 | 8.62339 | 27433 ft | 378 kts | 177° |
| 2026-05-05 20:36 | 46.28763 | 8.62857 | 26812 ft | 377 kts | 177° |
| 2026-05-05 20:36 | 46.26182 | 8.63450 | 26193 ft | 377 kts | 171° |
| 2026-05-05 20:37 | 46.23718 | 8.64757 | 25691 ft | 373 kts | 163° |
| 2026-05-05 20:37 | 46.22134 | 8.65690 | 25384 ft | 370 kts | 163° |
| 2026-05-05 20:37 | 46.18968 | 8.67551 | 24760 ft | 365 kts | 163° |
| 2026-05-05 20:37 | 46.16659 | 8.68906 | 24317 ft | 362 kts | 163° |
| 2026-05-05 20:38 | 46.14334 | 8.70273 | 23868 ft | 359 kts | 163° |
| 2026-05-05 20:38 | 46.12026 | 8.71632 | 23397 ft | 357 kts | 162° |
| 2026-05-05 20:38 | 46.09727 | 8.72975 | 22867 ft | 354 kts | 162° |
| 2026-05-05 20:38 | 46.07445 | 8.74304 | 22361 ft | 352 kts | 162° |
| 2026-05-05 20:39 | 46.05177 | 8.75621 | 21833 ft | 351 kts | 163° |
| 2026-05-05 20:39 | 46.02925 | 8.76947 | 21321 ft | 350 kts | 160° |
| 2026-05-05 20:39 | 46.00880 | 8.78889 | 20829 ft | 358 kts | 140° |
| 2026-05-05 20:39 | 45.99389 | 8.81800 | 20349 ft | 366 kts | 125° |
| 2026-05-05 20:40 | 45.98150 | 8.84995 | 19856 ft | 366 kts | 124° |
| 2026-05-05 20:40 | 45.96931 | 8.88188 | 19290 ft | 363 kts | 123° |
| 2026-05-05 20:40 | 45.95716 | 8.91359 | 18742 ft | 361 kts | 123° |
| 2026-05-05 20:40 | 45.94504 | 8.94508 | 18184 ft | 359 kts | 123° |
| 2026-05-05 20:41 | 45.93311 | 8.97585 | 17573 ft | 356 kts | 123° |
| 2026-05-05 20:41 | 45.92103 | 9.00670 | 16959 ft | 351 kts | 124° |
| 2026-05-05 20:41 | 45.90923 | 9.03669 | 16407 ft | 339 kts | 123° |
| 2026-05-05 20:41 | 45.89781 | 9.06568 | 15898 ft | 329 kts | 124° |
| 2026-05-05 20:42 | 45.88666 | 9.09388 | 15395 ft | 322 kts | 124° |
| 2026-05-05 20:42 | 45.87570 | 9.12142 | 14889 ft | 314 kts | 123° |
| 2026-05-05 20:42 | 45.86493 | 9.14828 | 14403 ft | 307 kts | 123° |
| 2026-05-05 20:42 | 45.85428 | 9.17464 | 13928 ft | 303 kts | 123° |
| 2026-05-05 20:43 | 45.84367 | 9.20062 | 13407 ft | 301 kts | 124° |
| 2026-05-05 20:43 | 45.83314 | 9.22630 | 13046 ft | 297 kts | 124° |
| 2026-05-05 20:43 | 45.82266 | 9.25181 | 12991 ft | 296 kts | 124° |
| 2026-05-05 20:43 | 45.81230 | 9.27696 | 12999 ft | 297 kts | 124° |
| 2026-05-05 20:44 | 45.80180 | 9.30247 | 12999 ft | 297 kts | 124° |
| 2026-05-05 20:44 | 45.79128 | 9.32800 | 13002 ft | 297 kts | 124° |
| 2026-05-05 20:44 | 45.78075 | 9.35353 | 12997 ft | 297 kts | 124° |
| 2026-05-05 20:44 | 45.77025 | 9.37902 | 12996 ft | 297 kts | 124° |
| 2026-05-05 20:45 | 45.74915 | 9.43003 | 12998 ft | 297 kts | 124° |
| 2026-05-05 20:45 | 45.73861 | 9.45551 | 12989 ft | 297 kts | 124° |
| 2026-05-05 20:45 | 45.72813 | 9.48097 | 12999 ft | 297 kts | 124° |
| 2026-05-05 20:46 | 45.71582 | 9.50420 | 13001 ft | 291 kts | 143° |
| 2026-05-05 20:46 | 45.70471 | 9.51438 | 13004 ft | 285 kts | 160° |
| 2026-05-05 20:46 | 45.68563 | 9.52026 | 12778 ft | 280 kts | 180° |
| 2026-05-05 20:46 | 45.66626 | 9.52045 | 12490 ft | 276 kts | 183° |
| 2026-05-05 20:47 | 45.64108 | 9.51972 | 11977 ft | 270 kts | 184° |
| 2026-05-05 20:47 | 45.62239 | 9.51902 | 11570 ft | 267 kts | 184° |
| 2026-05-05 20:47 | 45.60986 | 9.51852 | 11305 ft | 265 kts | 184° |
| 2026-05-05 20:47 | 45.59165 | 9.51771 | 10914 ft | 264 kts | 184° |
| 2026-05-05 20:48 | 45.57330 | 9.51684 | 10514 ft | 263 kts | 184° |
| 2026-05-05 20:48 | 45.55526 | 9.51591 | 10126 ft | 255 kts | 184° |
| 2026-05-05 20:48 | 45.53786 | 9.51497 | 9718 ft | 246 kts | 184° |
| 2026-05-05 20:48 | 45.52091 | 9.51405 | 9290 ft | 242 kts | 184° |
| 2026-05-05 20:49 | 45.50429 | 9.51313 | 8877 ft | 235 kts | 184° |
| 2026-05-05 20:49 | 45.48821 | 9.51224 | 8461 ft | 229 kts | 184° |
| 2026-05-05 20:49 | 45.47242 | 9.51137 | 8000 ft | 226 kts | 184° |
| 2026-05-05 20:49 | 45.45679 | 9.51050 | 7547 ft | 224 kts | 184° |
| 2026-05-05 20:50 | 45.44125 | 9.50963 | 7107 ft | 222 kts | 184° |
| 2026-05-05 20:50 | 45.42587 | 9.50878 | 6649 ft | 220 kts | 184° |
| 2026-05-05 20:50 | 45.41075 | 9.50794 | 6193 ft | 219 kts | 184° |
| 2026-05-05 20:50 | 45.39555 | 9.50701 | 5724 ft | 218 kts | 184° |
| 2026-05-05 20:51 | 45.38042 | 9.50595 | 5262 ft | 217 kts | 184° |
| 2026-05-05 20:51 | 45.36534 | 9.50480 | 4801 ft | 216 kts | 184° |
| 2026-05-05 20:51 | 45.35037 | 9.50361 | 4331 ft | 215 kts | 184° |
| 2026-05-05 20:51 | 45.33544 | 9.50224 | 4064 ft | 214 kts | 183° |
| 2026-05-05 20:52 | 45.32052 | 9.50074 | 4052 ft | 216 kts | 182° |
| 2026-05-05 20:52 | 45.30596 | 9.50452 | 4042 ft | 216 kts | 152° |
| 2026-05-05 20:52 | 45.29547 | 9.51934 | 4032 ft | 217 kts | 117° |
| 2026-05-05 20:52 | 45.29281 | 9.54031 | 4032 ft | 222 kts | 83° |
| 2026-05-05 20:53 | 45.29874 | 9.56049 | 4040 ft | 226 kts | 58° |
| 2026-05-05 20:53 | 45.30537 | 9.58043 | 4025 ft | 223 kts | 83° |
| 2026-05-05 20:53 | 45.30369 | 9.60180 | 4033 ft | 219 kts | 117° |
| 2026-05-05 20:53 | 45.29411 | 9.61766 | 4034 ft | 216 kts | 150° |
| 2026-05-05 20:54 | 45.27980 | 9.62293 | 4023 ft | 215 kts | 184° |
| 2026-05-05 20:54 | 45.26593 | 9.61553 | 4018 ft | 217 kts | 218° |
| 2026-05-05 20:54 | 45.25569 | 9.59946 | 3700 ft | 221 kts | 231° |
| 2026-05-05 20:54 | 45.24678 | 9.58172 | 3249 ft | 221 kts | 233° |
| 2026-05-05 20:55 | 45.23812 | 9.56376 | 3002 ft | 220 kts | 233° |
| 2026-05-05 20:55 | 45.22948 | 9.54569 | 2997 ft | 222 kts | 234° |
| 2026-05-05 20:55 | 45.22079 | 9.52745 | 3006 ft | 223 kts | 234° |
| 2026-05-05 20:55 | 45.21213 | 9.50926 | 2993 ft | 223 kts | 234° |
| 2026-05-05 20:56 | 45.20343 | 9.49100 | 2991 ft | 223 kts | 233° |
| 2026-05-05 20:56 | 45.19480 | 9.47273 | 2984 ft | 223 kts | 237° |
| 2026-05-05 20:56 | 45.18990 | 9.45197 | 2982 ft | 226 kts | 265° |
| 2026-05-05 20:56 | 45.19244 | 9.43038 | 2984 ft | 227 kts | 290° |
| 2026-05-05 20:57 | 45.19820 | 9.40949 | 2981 ft | 228 kts | 291° |
| 2026-05-05 20:57 | 45.20402 | 9.38877 | 2973 ft | 220 kts | 291° |
| 2026-05-05 20:57 | 45.20948 | 9.36943 | 2981 ft | 205 kts | 291° |
| 2026-05-05 20:57 | 45.21469 | 9.35093 | 3004 ft | 200 kts | 291° |
| 2026-05-05 20:58 | 45.21979 | 9.33274 | 2976 ft | 197 kts | 291° |
| 2026-05-05 20:58 | 45.22660 | 9.31593 | 2971 ft | 197 kts | 310° |
| 2026-05-05 20:58 | 45.23716 | 9.30378 | 2975 ft | 196 kts | 333° |
| 2026-05-05 20:58 | 45.25006 | 9.29802 | 2994 ft | 194 kts | 355° |
| 2026-05-05 20:59 | 45.26341 | 9.29657 | 2999 ft | 194 kts | 358° |
| 2026-05-05 20:59 | 45.27691 | 9.29513 | 2991 ft | 195 kts | 356° |
| 2026-05-05 20:59 | 45.29040 | 9.29369 | 3006 ft | 194 kts | 356° |
| 2026-05-05 20:59 | 45.30390 | 9.29224 | 2898 ft | 195 kts | 357° |
| 2026-05-05 21:00 | 45.31734 | 9.29080 | 2675 ft | 193 kts | 357° |
| 2026-05-05 21:00 | 45.33070 | 9.28937 | 2433 ft | 192 kts | 358° |
| 2026-05-05 21:00 | 45.34381 | 9.28795 | 2177 ft | 183 kts | 358° |
| 2026-05-05 21:00 | 45.35610 | 9.28662 | 1931 ft | 170 kts | 359° |
| 2026-05-05 21:01 | 45.36746 | 9.28540 | 1727 ft | 158 kts | 359° |
| 2026-05-05 21:01 | 45.37795 | 9.28427 | 1529 ft | 146 kts | 359° |
| 2026-05-05 21:01 | 45.38789 | 9.28321 | 1332 ft | 141 kts | 359° |
| 2026-05-05 21:01 | 45.39760 | 9.28217 | 1122 ft | 139 kts | 358° |
| 2026-05-05 21:02 | 45.40709 | 9.28115 | 935 ft | 137 kts | 358° |
| 2026-05-05 21:02 | 45.41652 | 9.28019 | 743 ft | 135 kts | 358° |
| 2026-05-05 21:02 | 45.42583 | 9.27915 | 569 ft | 133 kts | 355° |
| 2026-05-05 21:02 | 45.43503 | 9.27819 | 423 ft | 132 kts | 358° |
| 2026-05-05 21:03 | 45.44397 | 9.27717 | 363 ft | 119 kts | 357° |
| 2026-05-05 21:03 | 45.44988 | 9.27655 | 361 ft | 48 kts | 356° |
| 2026-05-05 21:03 | 45.45264 | 9.27640 | 358 ft | 27 kts | 17° |
| 2026-05-05 21:03 | 45.45409 | 9.27736 | 364 ft | 11 kts | 32° |
| 2026-05-05 21:04 | 45.45480 | 9.27800 | 360 ft | 13 kts | 14° |
| 2026-05-05 21:04 | 45.45573 | 9.27816 | 360 ft | 14 kts | 360° |
| 2026-05-05 21:04 | 45.45647 | 9.27817 | 362 ft | 3 kts | 0° |
| 2026-05-05 21:04 | 45.45742 | 9.27818 | 360 ft | 22 kts | 0° |
| 2026-05-05 21:05 | 45.45861 | 9.27820 | 360 ft | 12 kts | 1° |
| 2026-05-05 21:05 | 45.45907 | 9.27905 | 365 ft | 13 kts | 90° |
| 2026-05-05 21:05 | 45.45906 | 9.28049 | 360 ft | 10 kts | 90° |
| 2026-05-05 21:05 | 45.45925 | 9.28097 | 361 ft | 5 kts | 25° |
| 2026-05-05 21:06 | 45.45960 | 9.28101 | 360 ft | 4 kts | 359° |
| 2026-05-05 21:06 | 45.45984 | 9.28101 | 362 ft | 0 kts | 359° |